Time;durP1;ratioP1;P1;durP2;ratioP2;P2;SDS_P1;SDS_P2;PMS_P1;PMS_P2;Temp;Humidity;BMP_temperature;BMP_pressure;BME280_temperature;BME280_humidity;BME280_pressure;Samples;Min_cycle;Max_cycle;Signal;HPM_P1;HPM_P2
2022/05/15 00:00:38;;;;;;;;;;;;;;;;;;4999739;28;20363;-58
2022/05/15 00:03:03;;;;;;;;;;;;;;;;;;4989817;28;19921;-57
2022/05/15 00:05:28;;;;;;;;;;;;;;;;;;4998367;28;19921;-58
2022/05/15 00:07:56;;;;;;;;;;;;;;;;;;5007884;28;20355;-57
2022/05/15 00:10:21;;;;;;;;;;;;;;;;;;4993969;28;19951;-58
2022/05/15 00:12:47;;;;;;;;;;;;;;;;;;4994030;28;20416;-58
2022/05/15 00:15:12;;;;;;;;;;;;;;;;;;4999267;28;19964;-59
2022/05/15 00:17:37;;;;;;;;;;;;;;;;;;4998747;28;19925;-58
2022/05/15 00:20:02;;;;;;;;;;;;;;;;;;4995221;28;19953;-60
2022/05/15 00:22:27;;;;;;;;;;;;;;;;;;4992499;28;19918;-57
2022/05/15 00:24:53;;;;;;;;;;;;;;;;;;4996429;28;20626;-58
2022/05/15 00:27:19;;;;;;;;;;;;;;;;;;4997578;28;20048;-57
2022/05/15 00:29:44;;;;;;;;;;;;;;;;;;5009683;28;19957;-58
2022/05/15 00:32:10;;;;;;;;;;;;;;;;;;5003473;28;19961;-57
2022/05/15 00:34:35;;;;;;;;;;;;;;;;;;5014722;28;19945;-57
2022/05/15 00:37:00;;;;;;;;;;;;;;;;;;5010988;28;20270;-57
2022/05/15 00:39:25;;;;;;;;;;;;;;;;;;4994670;28;19939;-59
2022/05/15 00:41:50;;;;;;;;;;;;;;;;;;5006494;28;20454;-59
2022/05/15 00:44:16;;;;;;;;;;;;;;;;;;4997235;28;19921;-59
2022/05/15 00:46:41;;;;;;;;;;;;;;;;;;4995948;28;19921;-59
2022/05/15 00:49:06;;;;;;;;;;;;;;;;;;5008945;28;20418;-57
2022/05/15 00:51:31;;;;;;;;;;;;;;;;;;5006199;28;19972;-59
2022/05/15 00:53:57;;;;;;;;;;;;;;;;;;5010417;28;19940;-60
2022/05/15 00:56:23;;;;;;;;;;;;;;;;;;5011664;28;20245;-58
2022/05/15 00:58:48;;;;;;;;;;;;;;;;;;5009494;28;20428;-56
2022/05/15 01:01:13;;;;;;;;;;;;;;;;;;4989185;28;19918;-59
2022/05/15 01:03:39;;;;;;;;;;;;;;;;;;5008226;28;19929;-58
2022/05/15 01:06:04;;;;;;;;;;;;;;;;;;4991584;28;20012;-59
2022/05/15 01:08:30;;;;;;;;;;;;;;;;;;5009836;28;20300;-60
2022/05/15 01:10:56;;;;;;;;;;;;;;;;;;4993126;28;20322;-57
2022/05/15 01:13:22;;;;;;;;;;;;;;;;;;4987956;28;19918;-57
2022/05/15 01:15:47;;;;;;;;;;;;;;;;;;5005009;28;19976;-58
2022/05/15 01:18:15;;;;;;;;;;;;;;;;;;5011449;28;19917;-58
2022/05/15 01:20:40;;;;;;;;;;;;;;;;;;4993792;28;20256;-58
2022/05/15 01:23:05;;;;;;;;;;;;;;;;;;4999335;28;19917;-59
2022/05/15 01:25:31;;;;;;;;;;;;;;;;;;5008896;28;20430;-58
2022/05/15 01:27:56;;;;;;;;;;;;;;;;;;4991315;28;19921;-58
2022/05/15 01:30:22;;;;;;;;;;;;;;;;;;5008772;28;20831;-60
2022/05/15 01:32:47;;;;;;;;;;;;;;;;;;5008267;28;19924;-58
2022/05/15 01:35:12;;;;;;;;;;;;;;;;;;4989904;28;20446;-59
2022/05/15 01:37:38;;;;;;;;;;;;;;;;;;5000035;28;19917;-58
2022/05/15 01:40:03;;;;;;;;;;;;;;;;;;5010809;28;19917;-59
2022/05/15 01:42:29;;;;;;;;;;;;;;;;;;5001422;28;19922;-58
2022/05/15 01:44:54;;;;;;;;;;;;;;;;;;5006362;28;19941;-58
2022/05/15 01:47:19;;;;;;;;;;;;;;;;;;5000474;28;19968;-58
2022/05/15 01:49:45;;;;;;;;;;;;;;;;;;5009468;28;20285;-58
2022/05/15 01:52:10;;;;;;;;;;;;;;;;;;5010183;28;20418;-58
2022/05/15 01:54:35;;;;;;;;;;;;;;;;;;4990363;28;19979;-55
2022/05/15 01:57:00;;;;;;;;;;;;;;;;;;4993512;28;19924;-59
2022/05/15 01:59:26;;;;;;;;;;;;;;;;;;5010245;28;19918;-54
2022/05/15 02:01:51;;;;;;;;;;;;;;;;;;4997977;28;19972;-56
2022/05/15 02:04:17;;;;;;;;;;;;;;;;;;4993441;28;20599;-57
2022/05/15 02:06:42;;;;;;;;;;;;;;;;;;5002979;28;20375;-54
2022/05/15 02:09:07;;;;;;;;;;;;;;;;;;5000813;28;20390;-58
2022/05/15 02:11:34;;;;;;;;;;;;;;;;;;4991271;28;19918;-57
2022/05/15 02:13:59;;;;;;;;;;;;;;;;;;5006844;28;20358;-57
2022/05/15 02:16:25;;;;;;;;;;;;;;;;;;4997368;28;20425;-60
2022/05/15 02:18:51;;;;;;;;;;;;;;;;;;5013283;28;19980;-58
2022/05/15 02:21:16;;;;;;;;;;;;;;;;;;5004124;28;20013;-58
2022/05/15 02:23:41;;;;;;;;;;;;;;;;;;4998626;28;19964;-58
2022/05/15 02:26:06;;;;;;;;;;;;;;;;;;5000014;28;19921;-58
2022/05/15 02:28:31;;;;;;;;;;;;;;;;;;5005727;28;19956;-58
2022/05/15 02:30:57;;;;;;;;;;;;;;;;;;4992512;28;19924;-55
2022/05/15 02:33:22;;;;;;;;;;;;;;;;;;5008265;28;19920;-60
2022/05/15 02:35:47;;;;;;;;;;;;;;;;;;4996068;28;19921;-57
2022/05/15 02:38:12;;;;;;;;;;;;;;;;;;4997896;28;19924;-53
2022/05/15 02:40:38;;;;;;;;;;;;;;;;;;5009525;28;20432;-56
2022/05/15 02:43:04;;;;;;;;;;;;;;;;;;4995337;28;20027;-59
2022/05/15 02:45:29;;;;;;;;;;;;;;;;;;4999286;28;19933;-56
2022/05/15 02:47:54;;;;;;;;;;;;;;;;;;5009392;28;19929;-55
2022/05/15 02:53:03;;;;;;;;;;;;;;;;;;5012683;28;20625;-57
2022/05/15 02:55:29;;;;;;;;;;;;;;;;;;5004778;28;20598;-56
2022/05/15 02:57:55;;;;;;;;;;;;;;;;;;5011524;28;19918;-57
2022/05/15 03:00:20;;;;;;;;;;;;;;;;;;4991768;28;20554;-59
2022/05/15 03:02:45;;;;;;;;;;;;;;;;;;4999524;28;19921;-57
2022/05/15 03:05:11;;;;;;;;;;;;;;;;;;5000162;28;20097;-56
2022/05/15 03:07:36;;;;;;;;;;;;;;;;;;5013938;28;19921;-57
2022/05/15 03:10:01;;;;;;;;;;;;;;;;;;4990801;28;20804;-55
2022/05/15 03:12:26;;;;;;;;;;;;;;;;;;4995956;28;20294;-57
2022/05/15 03:14:52;;;;;;;;;;;;;;;;;;5007507;28;20294;-57
2022/05/15 03:17:18;;;;;;;;;;;;;;;;;;5003916;28;20414;-58
2022/05/15 03:19:43;;;;;;;;;;;;;;;;;;5014134;28;20004;-59
2022/05/15 03:22:08;;;;;;;;;;;;;;;;;;5002086;28;20041;-58
2022/05/15 03:24:33;;;;;;;;;;;;;;;;;;5009808;28;19925;-59
2022/05/15 03:26:59;;;;;;;;;;;;;;;;;;4999028;28;19922;-58
2022/05/15 03:29:24;;;;;;;;;;;;;;;;;;5012507;28;20345;-55
2022/05/15 03:31:49;;;;;;;;;;;;;;;;;;5013066;28;19922;-55
2022/05/15 03:34:15;;;;;;;;;;;;;;;;;;5011715;28;19928;-57
2022/05/15 03:36:40;;;;;;;;;;;;;;;;;;5011110;28;19918;-59
2022/05/15 03:39:06;;;;;;;;;;;;;;;;;;5016760;28;19914;-56
2022/05/15 03:41:32;;;;;;;;;;;;;;;;;;5012236;28;20378;-57
2022/05/15 03:43:57;;;;;;;;;;;;;;;;;;4995787;28;19960;-57
2022/05/15 03:46:22;;;;;;;;;;;;;;;;;;5001279;28;19921;-56
2022/05/15 03:48:47;;;;;;;;;;;;;;;;;;5009805;28;19922;-56
2022/05/15 03:51:13;;;;;;;;;;;;;;;;;;5011895;28;19921;-57
2022/05/15 03:53:38;;;;;;;;;;;;;;;;;;4995499;28;20657;-56
2022/05/15 03:56:03;;;;;;;;;;;;;;;;;;5009236;28;19929;-57
2022/05/15 03:58:28;;;;;;;;;;;;;;;;;;5013903;28;20390;-55
2022/05/15 04:00:54;;;;;;;;;;;;;;;;;;4994397;28;20358;-59
2022/05/15 04:03:19;;;;;;;;;;;;;;;;;;4992080;28;20309;-57
2022/05/15 04:05:44;;;;;;;;;;;;;;;;;;5010289;28;19917;-56
2022/05/15 04:08:10;;;;;;;;;;;;;;;;;;4997158;28;19918;-59
2022/05/15 04:10:35;;;;;;;;;;;;;;;;;;5005095;28;19921;-59
2022/05/15 04:13:01;;;;;;;;;;;;;;;;;;5008881;28;20623;-56
2022/05/15 04:15:26;;;;;;;;;;;;;;;;;;4997106;28;19924;-56
2022/05/15 04:17:51;;;;;;;;;;;;;;;;;;4995727;28;19909;-59
2022/05/15 04:20:16;;;;;;;;;;;;;;;;;;5006585;28;19925;-58
2022/05/15 04:22:42;;;;;;;;;;;;;;;;;;5001113;28;20385;-57
2022/05/15 04:25:07;;;;;;;;;;;;;;;;;;4999823;28;19964;-57
2022/05/15 04:27:32;;;;;;;;;;;;;;;;;;4996101;28;20286;-58
2022/05/15 04:29:57;;;;;;;;;;;;;;;;;;5006540;28;20308;-57
2022/05/15 04:32:22;;;;;;;;;;;;;;;;;;5004374;28;19918;-58
2022/05/15 04:34:48;;;;;;;;;;;;;;;;;;4992521;28;19914;-54
2022/05/15 04:37:13;;;;;;;;;;;;;;;;;;4993230;28;20310;-56
2022/05/15 04:39:38;;;;;;;;;;;;;;;;;;4993261;28;19924;-60
2022/05/15 04:42:03;;;;;;;;;;;;;;;;;;4995414;28;19924;-56
2022/05/15 04:44:29;;;;;;;;;;;;;;;;;;5010548;28;20381;-56
2022/05/15 04:46:54;;;;;;;;;;;;;;;;;;4993255;28;19929;-56
2022/05/15 04:49:19;;;;;;;;;;;;;;;;;;4991525;28;19921;-55
2022/05/15 04:51:44;;;;;;;;;;;;;;;;;;4994826;28;19923;-55
2022/05/15 04:54:10;;;;;;;;;;;;;;;;;;4993544;28;19925;-54
2022/05/15 04:56:35;;;;;;;;;;;;;;;;;;4994186;28;20037;-57
2022/05/15 04:59:00;;;;;;;;;;;;;;;;;;4988636;28;19913;-57
2022/05/15 05:01:27;;;;;;;;;;;;;;;;;;5000417;28;19925;-57
2022/05/15 05:03:52;;;;;;;;;;;;;;;;;;4993192;28;20271;-57
2022/05/15 05:06:17;;;;;;;;;;;;;;;;;;4992050;28;19945;-55
2022/05/15 05:08:43;;;;;;;;;;;;;;;;;;4993486;28;19918;-57
2022/05/15 05:11:08;;;;;;;;;;;;;;;;;;4995291;28;20013;-55
2022/05/15 05:13:33;;;;;;;;;;;;;;;;;;4993710;28;19924;-59
2022/05/15 05:15:58;;;;;;;;;;;;;;;;;;4997219;28;19975;-56
2022/05/15 05:18:24;;;;;;;;;;;;;;;;;;4989608;28;19988;-57
2022/05/15 05:20:49;;;;;;;;;;;;;;;;;;4997962;28;19924;-56
2022/05/15 05:23:14;;;;;;;;;;;;;;;;;;4993710;28;19917;-57
2022/05/15 05:25:39;;;;;;;;;;;;;;;;;;4991174;28;19975;-59
2022/05/15 05:28:04;;;;;;;;;;;;;;;;;;5004698;28;19922;-57
2022/05/15 05:30:30;;;;;;;;;;;;;;;;;;4997203;28;19937;-59
2022/05/15 05:32:55;;;;;;;;;;;;;;;;;;4991050;28;19918;-57
2022/05/15 05:35:20;;;;;;;;;;;;;;;;;;4991268;28;19928;-56
2022/05/15 05:37:45;;;;;;;;;;;;;;;;;;5008394;28;19925;-56
2022/05/15 05:40:10;;;;;;;;;;;;;;;;;;4993991;28;19964;-56
2022/05/15 05:42:36;;;;;;;;;;;;;;;;;;4991573;28;19918;-57
2022/05/15 05:45:02;;;;;;;;;;;;;;;;;;4990630;28;19925;-53
2022/05/15 05:47:28;;;;;;;;;;;;;;;;;;4991778;28;19936;-55
2022/05/15 05:49:53;;;;;;;;;;;;;;;;;;4992580;28;19929;-53
2022/05/15 05:52:18;;;;;;;;;;;;;;;;;;4995748;28;20363;-57
2022/05/15 05:54:44;;;;;;;;;;;;;;;;;;4993752;28;20032;-55
2022/05/15 05:57:09;;;;;;;;;;;;;;;;;;5001301;28;19953;-58
2022/05/15 05:59:34;;;;;;;;;;;;;;;;;;4994686;28;19921;-59
2022/05/15 06:01:59;;;;;;;;;;;;;;;;;;4996888;28;19921;-57
2022/05/15 06:04:40;;;;;;;;;;;;;;;;;;4994542;28;19961;-58
2022/05/15 06:07:05;;;;;;;;;;;;;;;;;;4998550;28;20227;-58
2022/05/15 06:09:30;;;;;;;;;;;;;;;;;;4995955;28;19928;-58
2022/05/15 06:11:55;;;;;;;;;;;;;;;;;;4996445;28;20004;-58
2022/05/15 06:14:21;;;;;;;;;;;;;;;;;;4997259;28;19917;-58
2022/05/15 06:16:46;;;;;;;;;;;;;;;;;;4996413;28;19921;-59
2022/05/15 06:19:11;;;;;;;;;;;;;;;;;;4996169;28;19918;-59
2022/05/15 06:21:36;;;;;;;;;;;;;;;;;;4992861;28;20362;-59
2022/05/15 06:24:01;;;;;;;;;;;;;;;;;;4999101;28;20378;-59
2022/05/15 06:26:27;;;;;;;;;;;;;;;;;;4997462;28;19999;-59
2022/05/15 06:28:52;;;;;;;;;;;;;;;;;;4994654;28;19975;-59
2022/05/15 06:31:17;;;;;;;;;;;;;;;;;;4998779;28;19929;-59
2022/05/15 06:33:42;;;;;;;;;;;;;;;;;;4993310;28;19922;-59
2022/05/15 06:36:07;;;;;;;;;;;;;;;;;;4998473;28;19917;-59
2022/05/15 06:38:33;;;;;;;;;;;;;;;;;;4998739;28;19918;-59
2022/05/15 06:40:58;;;;;;;;;;;;;;;;;;5000037;28;19918;-59
2022/05/15 06:43:23;;;;;;;;;;;;;;;;;;4994649;28;19987;-60
2022/05/15 06:45:48;;;;;;;;;;;;;;;;;;4993877;28;20141;-60
2022/05/15 06:48:14;;;;;;;;;;;;;;;;;;4993066;28;20258;-59
2022/05/15 06:50:40;;;;;;;;;;;;;;;;;;4994055;28;20029;-59
2022/05/15 06:53:05;;;;;;;;;;;;;;;;;;4995795;28;19917;-58
2022/05/15 06:55:30;;;;;;;;;;;;;;;;;;5000650;28;20342;-59
2022/05/15 06:57:56;;;;;;;;;;;;;;;;;;4995827;28;19918;-59
2022/05/15 07:00:21;;;;;;;;;;;;;;;;;;5005999;28;19914;-60
2022/05/15 07:02:47;;;;;;;;;;;;;;;;;;4995216;28;19960;-59
2022/05/15 07:05:12;;;;;;;;;;;;;;;;;;4998060;28;20295;-59
2022/05/15 07:07:38;;;;;;;;;;;;;;;;;;4997563;28;20044;-59
2022/05/15 07:10:03;;;;;;;;;;;;;;;;;;4996303;28;19957;-59
2022/05/15 07:12:28;;;;;;;;;;;;;;;;;;4997873;28;19921;-59
2022/05/15 07:14:53;;;;;;;;;;;;;;;;;;5002287;28;20040;-59
2022/05/15 07:17:18;;;;;;;;;;;;;;;;;;4993440;28;19956;-60
2022/05/15 07:19:44;;;;;;;;;;;;;;;;;;4998946;28;19917;-58
2022/05/15 07:22:09;;;;;;;;;;;;;;;;;;4993119;28;19924;-59
2022/05/15 07:24:34;;;;;;;;;;;;;;;;;;4991805;28;19917;-58
2022/05/15 07:26:59;;;;;;;;;;;;;;;;;;4993110;28;19921;-58
2022/05/15 07:29:25;;;;;;;;;;;;;;;;;;4992063;28;20114;-58
2022/05/15 07:31:51;;;;;;;;;;;;;;;;;;4993006;28;19922;-57
2022/05/15 07:34:16;;;;;;;;;;;;;;;;;;4991912;28;19948;-59
2022/05/15 07:36:42;;;;;;;;;;;;;;;;;;4993462;28;20085;-59
2022/05/15 07:39:07;;;;;;;;;;;;;;;;;;5008709;28;19918;-59
2022/05/15 07:41:32;;;;;;;;;;;;;;;;;;5007814;28;19918;-58
2022/05/15 07:43:57;;;;;;;;;;;;;;;;;;4995491;28;19924;-58
2022/05/15 07:46:23;;;;;;;;;;;;;;;;;;4989867;28;19948;-60
2022/05/15 07:48:48;;;;;;;;;;;;;;;;;;4991106;28;19918;-58
2022/05/15 07:51:13;;;;;;;;;;;;;;;;;;4990303;28;20305;-57
2022/05/15 07:53:38;;;;;;;;;;;;;;;;;;4990060;28;20333;-57
2022/05/15 07:56:09;;;;;;;;;;;;;;;;;;5008216;28;19932;-58
2022/05/15 07:58:34;;;;;;;;;;;;;;;;;;4991956;28;19917;-59
2022/05/15 08:01:03;;;;;;;;;;;;;;;;;;4994231;28;19917;-60
2022/05/15 08:03:28;;;;;;;;;;;;;;;;;;4990907;28;20370;-59
2022/05/15 08:08:37;;;;;;;;;;;;;;;;;;4991780;28;19922;-59
2022/05/15 08:11:02;;;;;;;;;;;;;;;;;;4989651;28;19937;-59
2022/05/15 08:13:31;;;;;;;;;;;;;;;;;;4997818;28;19918;-59
2022/05/15 08:15:56;;;;;;;;;;;;;;;;;;4992287;28;19921;-59
2022/05/15 08:23:51;;;;;;;;;;;;;;;;;;4991027;28;19948;-60
2022/05/15 08:26:17;;;;;;;;;;;;;;;;;;4993931;28;19922;-59
2022/05/15 08:28:42;;;;;;;;;;;;;;;;;;4990513;28;20341;-60
2022/05/15 08:31:08;;;;;;;;;;;;;;;;;;4976348;28;20597;-59
2022/05/15 08:33:33;;;;;;;;;;;;;;;;;;4988670;28;19945;-59
2022/05/15 08:35:59;;;;;;;;;;;;;;;;;;5003501;28;19968;-59
2022/05/15 08:38:24;;;;;;;;;;;;;;;;;;4990251;28;19928;-59
2022/05/15 08:40:49;;;;;;;;;;;;;;;;;;4990855;28;19999;-59
2022/05/15 08:43:14;;;;;;;;;;;;;;;;;;4990504;28;20278;-59
2022/05/15 08:45:39;;;;;;;;;;;;;;;;;;5004800;28;19928;-58
2022/05/15 08:48:05;;;;;;;;;;;;;;;;;;5001682;28;20413;-59
2022/05/15 08:50:30;;;;;;;;;;;;;;;;;;4991368;28;20628;-58
2022/05/15 08:52:55;;;;;;;;;;;;;;;;;;4992650;28;19971;-59
2022/05/15 08:55:20;;;;;;;;;;;;;;;;;;4991458;28;19922;-60
2022/05/15 08:57:46;;;;;;;;;;;;;;;;;;4990012;28;20081;-58
2022/05/15 09:00:11;;;;;;;;;;;;;;;;;;4990617;28;20640;-60
2022/05/15 09:02:36;;;;;;;;;;;;;;;;;;4988136;28;20658;-58
2022/05/15 09:05:01;;;;;;;;;;;;;;;;;;4989198;28;19924;-59
2022/05/15 09:07:27;;;;;;;;;;;;;;;;;;4990888;28;19929;-60
2022/05/15 09:09:52;;;;;;;;;;;;;;;;;;4991615;28;19933;-59
2022/05/15 09:12:17;;;;;;;;;;;;;;;;;;4993843;28;20011;-60
2022/05/15 09:14:43;;;;;;;;;;;;;;;;;;4991927;28;20028;-59
2022/05/15 09:17:08;;;;;;;;;;;;;;;;;;4997039;28;19983;-58
2022/05/15 09:19:33;;;;;;;;;;;;;;;;;;4997036;28;20007;-59
2022/05/15 09:21:59;;;;;;;;;;;;;;;;;;4984185;28;20028;-59
2022/05/15 09:24:25;;;;;;;;;;;;;;;;;;4993772;28;19925;-59
2022/05/15 09:26:50;;;;;;;;;;;;;;;;;;4992829;28;19926;-59
2022/05/15 09:29:15;;;;;;;;;;;;;;;;;;4990249;28;19925;-59
2022/05/15 09:31:42;;;;;;;;;;;;;;;;;;4989897;28;19943;-59
2022/05/15 09:34:07;;;;;;;;;;;;;;;;;;4997658;28;19917;-59
2022/05/15 09:36:32;;;;;;;;;;;;;;;;;;4994354;28;20729;-59
2022/05/15 09:38:57;;;;;;;;;;;;;;;;;;4991587;28;20370;-59
2022/05/15 09:44:07;;;;;;;;;;;;;;;;;;5008431;28;20048;-60
2022/05/15 09:46:32;;;;;;;;;;;;;;;;;;4992443;28;19922;-60
2022/05/15 09:48:58;;;;;;;;;;;;;;;;;;4990833;28;19944;-61
2022/05/15 09:51:23;;;;;;;;;;;;;;;;;;5008964;28;19918;-60
2022/05/15 09:53:48;;;;;;;;;;;;;;;;;;4992802;28;20405;-61
2022/05/15 09:56:14;;;;;;;;;;;;;;;;;;4990877;28;19924;-61
2022/05/15 09:58:39;;;;;;;;;;;;;;;;;;4992934;28;20353;-60
2022/05/15 10:01:04;;;;;;;;;;;;;;;;;;4993285;28;20394;-61
2022/05/15 10:03:29;;;;;;;;;;;;;;;;;;4997070;28;20374;-60
2022/05/15 10:05:55;;;;;;;;;;;;;;;;;;4990227;28;20261;-57
2022/05/15 10:08:20;;;;;;;;;;;;;;;;;;4989555;28;19968;-59
2022/05/15 10:10:45;;;;;;;;;;;;;;;;;;4989104;28;19913;-60
2022/05/15 10:13:10;;;;;;;;;;;;;;;;;;4991043;28;19964;-60
2022/05/15 10:15:35;;;;;;;;;;;;;;;;;;4991978;28;20009;-59
2022/05/15 10:18:01;;;;;;;;;;;;;;;;;;4990966;28;19922;-60
2022/05/15 10:20:26;;;;;;;;;;;;;;;;;;4991959;28;19917;-60
2022/05/15 10:22:52;;;;;;;;;;;;;;;;;;4992490;28;19922;-60
2022/05/15 10:25:18;;;;;;;;;;;;;;;;;;4993237;28;19924;-60
2022/05/15 10:27:43;;;;;;;;;;;;;;;;;;5009176;28;19922;-60
2022/05/15 10:30:08;;;;;;;;;;;;;;;;;;4994186;28;19921;-59
2022/05/15 10:32:33;;;;;;;;;;;;;;;;;;4993284;28;20435;-60
2022/05/15 10:34:59;;;;;;;;;;;;;;;;;;4992352;28;19921;-61
2022/05/15 10:37:24;;;;;;;;;;;;;;;;;;5006585;28;20394;-60
2022/05/15 10:39:49;;;;;;;;;;;;;;;;;;4993607;28;19917;-60
2022/05/15 10:42:14;;;;;;;;;;;;;;;;;;4998294;28;19917;-60
2022/05/15 10:44:40;;;;;;;;;;;;;;;;;;4996985;28;19924;-60
2022/05/15 10:47:05;;;;;;;;;;;;;;;;;;4995404;28;19921;-60
2022/05/15 10:49:30;;;;;;;;;;;;;;;;;;4995455;28;19924;-59
2022/05/15 10:51:55;;;;;;;;;;;;;;;;;;4996746;28;19957;-60
2022/05/15 10:57:24;;;;;;;;;;;;;;;;;;4994246;28;20298;-60
2022/05/15 10:59:50;;;;;;;;;;;;;;;;;;4994095;28;20460;-60
2022/05/15 11:02:15;;;;;;;;;;;;;;;;;;4994772;28;20008;-60
2022/05/15 11:04:41;;;;;;;;;;;;;;;;;;4993965;28;20757;-59
2022/05/15 11:07:08;;;;;;;;;;;;;;;;;;4994752;28;19921;-60
2022/05/15 11:09:33;;;;;;;;;;;;;;;;;;4998172;28;19957;-61
2022/05/15 11:11:58;;;;;;;;;;;;;;;;;;5009076;28;19964;-61
2022/05/15 11:14:23;;;;;;;;;;;;;;;;;;4995315;28;19917;-60
2022/05/15 11:16:49;;;;;;;;;;;;;;;;;;4995307;28;19921;-60
2022/05/15 11:19:14;;;;;;;;;;;;;;;;;;5010272;28;19918;-60
2022/05/15 11:21:39;;;;;;;;;;;;;;;;;;4997547;28;19965;-60
2022/05/15 11:24:04;;;;;;;;;;;;;;;;;;4995710;28;19921;-60
2022/05/15 11:26:30;;;;;;;;;;;;;;;;;;4994811;28;19961;-61
2022/05/15 11:28:55;;;;;;;;;;;;;;;;;;4995981;28;19917;-59
2022/05/15 11:31:20;;;;;;;;;;;;;;;;;;5010278;28;19922;-59
2022/05/15 11:33:46;;;;;;;;;;;;;;;;;;4996121;28;20282;-58
2022/05/15 11:36:11;;;;;;;;;;;;;;;;;;4997686;28;20368;-58
2022/05/15 11:38:36;;;;;;;;;;;;;;;;;;4995478;28;19924;-59
2022/05/15 11:41:01;;;;;;;;;;;;;;;;;;4994248;28;19922;-59
2022/05/15 11:43:27;;;;;;;;;;;;;;;;;;4994596;28;20361;-59
2022/05/15 11:45:52;;;;;;;;;;;;;;;;;;4994859;28;20464;-61
2022/05/15 11:48:17;;;;;;;;;;;;;;;;;;4994700;28;19928;-58
2022/05/15 11:50:42;;;;;;;;;;;;;;;;;;4994580;28;19914;-59
2022/05/15 11:53:08;;;;;;;;;;;;;;;;;;4994672;28;20000;-59
2022/05/15 11:55:33;;;;;;;;;;;;;;;;;;4999780;28;20274;-59
2022/05/15 11:57:59;;;;;;;;;;;;;;;;;;4994594;28;20374;-59
2022/05/15 12:00:24;;;;;;;;;;;;;;;;;;4994385;28;19913;-59
2022/05/15 12:02:49;;;;;;;;;;;;;;;;;;4994227;28;19941;-60
2022/05/15 12:05:14;;;;;;;;;;;;;;;;;;4996720;28;19962;-60
2022/05/15 12:07:40;;;;;;;;;;;;;;;;;;4998369;28;19929;-60
2022/05/15 12:10:05;;;;;;;;;;;;;;;;;;4993750;28;19922;-60
2022/05/15 12:12:31;;;;;;;;;;;;;;;;;;4993057;28;19925;-60
2022/05/15 12:14:56;;;;;;;;;;;;;;;;;;4997107;28;19968;-61
2022/05/15 12:17:21;;;;;;;;;;;;;;;;;;4993170;28;19953;-60
2022/05/15 12:19:46;;;;;;;;;;;;;;;;;;4992411;28;20260;-60
2022/05/15 12:22:11;;;;;;;;;;;;;;;;;;4993770;28;20430;-60
2022/05/15 12:24:37;;;;;;;;;;;;;;;;;;4994983;28;19918;-59
2022/05/15 12:27:02;;;;;;;;;;;;;;;;;;4992880;28;19918;-60
2022/05/15 12:29:27;;;;;;;;;;;;;;;;;;4993171;28;20371;-59
2022/05/15 12:31:52;;;;;;;;;;;;;;;;;;4994371;28;19924;-60
2022/05/15 12:34:18;;;;;;;;;;;;;;;;;;4993730;28;20415;-60
2022/05/15 12:36:43;;;;;;;;;;;;;;;;;;4993574;28;20056;-60
2022/05/15 12:39:08;;;;;;;;;;;;;;;;;;4992377;28;20282;-60
2022/05/15 12:41:36;;;;;;;;;;;;;;;;;;4991578;28;19917;-60
2022/05/15 12:44:02;;;;;;;;;;;;;;;;;;4994168;28;19949;-61
2022/05/15 12:46:28;;;;;;;;;;;;;;;;;;5004492;28;19969;-60
2022/05/15 12:48:53;;;;;;;;;;;;;;;;;;4991903;28;19921;-61
2022/05/15 12:51:18;;;;;;;;;;;;;;;;;;4993976;28;19924;-61
2022/05/15 12:53:44;;;;;;;;;;;;;;;;;;4992819;28;19918;-61
2022/05/15 12:56:09;;;;;;;;;;;;;;;;;;4999437;28;19925;-60
2022/05/15 12:58:34;;;;;;;;;;;;;;;;;;4991937;28;19910;-60
2022/05/15 13:01:00;;;;;;;;;;;;;;;;;;4992052;28;19917;-60
2022/05/15 13:03:25;;;;;;;;;;;;;;;;;;4993753;28;19925;-60
2022/05/15 13:05:51;;;;;;;;;;;;;;;;;;4991005;28;20414;-60
2022/05/15 13:08:16;;;;;;;;;;;;;;;;;;4992303;28;19925;-60
2022/05/15 13:10:41;;;;;;;;;;;;;;;;;;4992211;28;20373;-60
2022/05/15 13:13:08;;;;;;;;;;;;;;;;;;5003770;28;19972;-60
2022/05/15 13:15:33;;;;;;;;;;;;;;;;;;4992465;28;19921;-59
2022/05/15 13:17:59;;;;;;;;;;;;;;;;;;5008466;28;19917;-61
2022/05/15 13:20:24;;;;;;;;;;;;;;;;;;4995333;28;20435;-60
2022/05/15 13:22:49;;;;;;;;;;;;;;;;;;4992325;28;19960;-61
2022/05/15 13:25:14;;;;;;;;;;;;;;;;;;5004168;28;19925;-60
2022/05/15 13:27:41;;;;;;;;;;;;;;;;;;4992700;28;19922;-61
2022/05/15 13:30:06;;;;;;;;;;;;;;;;;;5002962;28;20016;-60
2022/05/15 13:32:31;;;;;;;;;;;;;;;;;;4992923;28;20366;-60
2022/05/15 13:34:56;;;;;;;;;;;;;;;;;;4991368;28;19932;-61
2022/05/15 13:37:22;;;;;;;;;;;;;;;;;;4995873;28;19917;-61
2022/05/15 13:45:15;;;;;;;;;;;;;;;;;;5008121;28;19925;-61
2022/05/15 13:47:40;;;;;;;;;;;;;;;;;;4993057;28;19972;-61
2022/05/15 13:50:06;;;;;;;;;;;;;;;;;;4993396;28;19921;-61
2022/05/15 13:52:31;;;;;;;;;;;;;;;;;;4992871;28;19920;-62
2022/05/15 13:54:57;;;;;;;;;;;;;;;;;;4992323;28;19918;-61
2022/05/15 13:57:22;;;;;;;;;;;;;;;;;;4990709;28;19921;-61
2022/05/15 13:59:47;;;;;;;;;;;;;;;;;;4992253;28;20410;-62
2022/05/15 14:02:12;;;;;;;;;;;;;;;;;;4994058;28;19913;-61
2022/05/15 14:04:39;;;;;;;;;;;;;;;;;;4994719;28;19917;-61
2022/05/15 14:07:04;;;;;;;;;;;;;;;;;;4990930;28;19921;-61
2022/05/15 14:09:29;;;;;;;;;;;;;;;;;;4991181;28;19921;-61
2022/05/15 14:11:54;;;;;;;;;;;;;;;;;;4991230;28;19910;-61
2022/05/15 14:14:20;;;;;;;;;;;;;;;;;;4996439;28;20176;-61
2022/05/15 14:16:45;;;;;;;;;;;;;;;;;;4997269;28;20515;-60
2022/05/15 14:19:10;;;;;;;;;;;;;;;;;;4994954;28;19914;-61
2022/05/15 14:21:36;;;;;;;;;;;;;;;;;;4995280;28;20084;-62
2022/05/15 14:24:01;;;;;;;;;;;;;;;;;;5000200;28;19924;-61
2022/05/15 14:26:26;;;;;;;;;;;;;;;;;;5013609;28;19922;-62
2022/05/15 14:28:52;;;;;;;;;;;;;;;;;;4981753;28;19965;-62
2022/05/15 14:31:17;;;;;;;;;;;;;;;;;;4996942;28;19921;-61
2022/05/15 14:33:42;;;;;;;;;;;;;;;;;;4995140;28;20363;-61
2022/05/15 14:36:07;;;;;;;;;;;;;;;;;;5010311;28;20102;-61
2022/05/15 14:38:33;;;;;;;;;;;;;;;;;;4995903;28;19920;-61
2022/05/15 14:40:58;;;;;;;;;;;;;;;;;;4994353;28;19925;-60
2022/05/15 14:43:23;;;;;;;;;;;;;;;;;;4996135;28;19913;-62
2022/05/15 14:45:50;;;;;;;;;;;;;;;;;;5001308;28;19918;-61
2022/05/15 14:48:15;;;;;;;;;;;;;;;;;;4993875;28;20226;-61
2022/05/15 14:50:40;;;;;;;;;;;;;;;;;;4996291;28;20825;-60
2022/05/15 14:53:06;;;;;;;;;;;;;;;;;;4994538;28;20174;-61
2022/05/15 14:58:15;;;;;;;;;;;;;;;;;;4995286;28;20028;-61
2022/05/15 15:00:40;;;;;;;;;;;;;;;;;;4995946;28;20427;-60
2022/05/15 15:03:05;;;;;;;;;;;;;;;;;;4994837;28;20442;-61
2022/05/15 15:05:44;;;;;;;;;;;;;;;;;;4995641;28;20428;-61
2022/05/15 15:08:09;;;;;;;;;;;;;;;;;;4998128;28;20065;-61
2022/05/15 15:10:34;;;;;;;;;;;;;;;;;;4994111;28;19985;-61
2022/05/15 15:13:00;;;;;;;;;;;;;;;;;;5009201;28;20008;-61
2022/05/15 15:15:25;;;;;;;;;;;;;;;;;;5009629;28;20266;-61
2022/05/15 15:17:50;;;;;;;;;;;;;;;;;;4996994;28;20375;-61
2022/05/15 15:20:16;;;;;;;;;;;;;;;;;;4994923;28;19918;-62
2022/05/15 15:22:41;;;;;;;;;;;;;;;;;;4993859;28;20001;-61
2022/05/15 15:25:06;;;;;;;;;;;;;;;;;;4994223;28;19922;-61
2022/05/15 15:27:31;;;;;;;;;;;;;;;;;;4994216;28;19925;-61
2022/05/15 15:29:56;;;;;;;;;;;;;;;;;;4994289;28;19949;-61
2022/05/15 15:32:22;;;;;;;;;;;;;;;;;;4993473;28;20045;-62
2022/05/15 15:34:47;;;;;;;;;;;;;;;;;;4993057;28;19920;-61
2022/05/15 15:39:56;;;;;;;;;;;;;;;;;;4995399;28;19918;-61
2022/05/15 15:42:22;;;;;;;;;;;;;;;;;;4994924;28;19979;-61
2022/05/15 15:44:50;;;;;;;;;;;;;;;;;;4992835;28;19932;-60
2022/05/15 15:47:15;;;;;;;;;;;;;;;;;;4995341;28;19921;-61
2022/05/15 15:49:41;;;;;;;;;;;;;;;;;;4995505;28;20701;-61
2022/05/15 15:52:06;;;;;;;;;;;;;;;;;;4994182;28;19945;-61
2022/05/15 15:54:31;;;;;;;;;;;;;;;;;;4997353;28;20004;-61
2022/05/15 15:56:56;;;;;;;;;;;;;;;;;;4996823;28;19917;-62
2022/05/15 15:59:22;;;;;;;;;;;;;;;;;;4993510;28;19928;-62
2022/05/15 16:01:47;;;;;;;;;;;;;;;;;;5010097;28;19922;-61
2022/05/15 16:04:12;;;;;;;;;;;;;;;;;;4994362;28;20437;-61
2022/05/15 16:06:37;;;;;;;;;;;;;;;;;;4994015;28;19980;-61
2022/05/15 16:09:03;;;;;;;;;;;;;;;;;;4991134;28;19921;-61
2022/05/15 16:11:32;;;;;;;;;;;;;;;;;;4996349;28;19917;-61
2022/05/15 16:13:57;;;;;;;;;;;;;;;;;;5007928;28;19921;-61
2022/05/15 16:16:23;;;;;;;;;;;;;;;;;;5002809;28;19917;-61
2022/05/15 16:18:48;;;;;;;;;;;;;;;;;;4994611;28;19918;-61
2022/05/15 16:21:13;;;;;;;;;;;;;;;;;;4994422;28;19918;-61
2022/05/15 16:23:39;;;;;;;;;;;;;;;;;;4993927;28;20029;-62
2022/05/15 16:26:05;;;;;;;;;;;;;;;;;;4993488;28;19970;-60
2022/05/15 16:28:30;;;;;;;;;;;;;;;;;;4993573;28;19929;-61
2022/05/15 16:30:59;;;;;;;;;;;;;;;;;;4995997;28;19921;-61
2022/05/15 16:33:25;;;;;;;;;;;;;;;;;;4994467;28;19918;-60
2022/05/15 16:35:51;;;;;;;;;;;;;;;;;;4991374;28;20290;-60
2022/05/15 16:38:16;;;;;;;;;;;;;;;;;;4992623;28;20296;-61
2022/05/15 16:40:43;;;;;;;;;;;;;;;;;;4993217;28;19921;-60
2022/05/15 16:43:08;;;;;;;;;;;;;;;;;;4994656;28;19964;-62
2022/05/15 16:45:33;;;;;;;;;;;;;;;;;;4991516;28;19925;-62
2022/05/15 16:47:59;;;;;;;;;;;;;;;;;;4993197;28;19922;-61
2022/05/15 16:50:26;;;;;;;;;;;;;;;;;;4992399;28;19922;-61
2022/05/15 16:52:51;;;;;;;;;;;;;;;;;;4996293;28;20785;-61
2022/05/15 16:55:16;;;;;;;;;;;;;;;;;;4993179;28;19957;-61
2022/05/15 16:57:41;;;;;;;;;;;;;;;;;;4994043;28;19917;-61
2022/05/15 17:00:12;;;;;;;;;;;;;;;;;;5006563;28;20386;-61